Time;durP1;ratioP1;P1;durP2;ratioP2;P2;SDS_P1;SDS_P2;PMS_P1;PMS_P2;Temp;Humidity;BMP_temperature;BMP_pressure;BME280_temperature;BME280_humidity;BME280_pressure;Samples;Min_cycle;Max_cycle;Signal;HPM_P1;HPM_P2
2021/12/01 00:01:38;;;;;;;2.92;1.90;;;5.50;86.00;;;;;;4999119;28;20208;-75
2021/12/01 00:04:05;;;;;;;1.95;1.65;;;5.50;86.40;;;;;;4996869;28;20220;-75
2021/12/01 00:06:33;;;;;;;1.85;1.73;;;5.50;86.00;;;;;;4996833;28;20228;-76
2021/12/01 00:09:00;;;;;;;1.50;1.40;;;5.50;86.30;;;;;;4997059;28;20234;-76
2021/12/01 00:11:27;;;;;;;2.70;1.60;;;5.50;87.10;;;;;;4996601;28;20208;-75
2021/12/01 00:13:54;;;;;;;1.80;1.70;;;5.50;86.80;;;;;;4996403;28;20646;-78
2021/12/01 00:16:21;;;;;;;2.70;1.27;;;5.60;86.30;;;;;;4996710;28;20219;-75
2021/12/01 00:18:48;;;;;;;1.48;1.38;;;5.60;86.20;;;;;;4996579;28;20209;-75
2021/12/01 00:21:15;;;;;;;1.42;1.33;;;5.60;86.00;;;;;;4996318;28;20216;-76
2021/12/01 00:23:43;;;;;;;1.75;1.65;;;5.60;84.50;;;;;;4997732;28;20213;-76
2021/12/01 00:26:10;;;;;;;1.23;1.20;;;5.60;82.00;;;;;;4998879;28;20193;-76
2021/12/01 00:28:37;;;;;;;1.40;1.30;;;5.70;81.10;;;;;;4997151;28;20615;-77
2021/12/01 00:31:03;;;;;;;1.92;1.70;;;5.70;80.90;;;;;;4997297;28;20219;-77
2021/12/01 00:33:30;;;;;;;1.25;1.15;;;5.70;80.30;;;;;;4996641;28;20550;-77
2021/12/01 00:35:58;;;;;;;1.80;1.63;;;5.80;80.50;;;;;;4997238;28;20223;-77
2021/12/01 00:38:26;;;;;;;1.50;1.40;;;5.80;79.80;;;;;;4996567;28;20227;-76
2021/12/01 00:40:55;;;;;;;1.70;1.10;;;5.80;79.10;;;;;;4996015;28;20668;-78
2021/12/01 00:43:24;;;;;;;1.05;1.05;;;5.90;78.30;;;;;;4997266;28;20204;-77
2021/12/01 00:45:55;;;;;;;1.27;1.00;;;5.90;78.00;;;;;;4999281;28;20213;-79
2021/12/01 00:48:22;;;;;;;1.30;1.20;;;5.90;78.00;;;;;;4998563;28;20580;-79
2021/12/01 00:50:50;;;;;;;1.25;1.15;;;6.00;77.60;;;;;;5003767;28;20619;-77
2021/12/01 00:53:17;;;;;;;1.70;1.13;;;5.90;76.70;;;;;;5003480;28;20211;-79
2021/12/01 00:55:44;;;;;;;2.35;1.40;;;6.00;75.80;;;;;;4999674;28;20684;-77
2021/12/01 00:58:13;;;;;;;1.85;1.20;;;6.00;75.60;;;;;;4999291;28;20225;-79
2021/12/01 01:00:41;;;;;;;1.77;1.20;;;6.00;75.10;;;;;;5006252;28;20215;-79
2021/12/01 01:03:09;;;;;;;1.48;1.13;;;5.90;75.30;;;;;;5009839;28;20232;-79
2021/12/01 01:05:37;;;;;;;1.08;0.98;;;5.90;74.70;;;;;;5004579;28;20216;-75
2021/12/01 01:08:05;;;;;;;5.97;1.70;;;6.00;74.70;;;;;;4998767;28;20324;-78
2021/12/01 01:10:46;;;;;;;2.72;1.30;;;5.90;74.70;;;;;;5001221;28;20215;-78
2021/12/01 01:18:48;;;;;;;1.50;1.35;;;5.90;75.20;;;;;;4995868;28;20271;-76
2021/12/01 01:21:16;;;;;;;0.98;0.93;;;5.90;75.50;;;;;;4995023;28;20216;-76
2021/12/01 01:23:43;;;;;;;1.60;1.50;;;5.90;75.70;;;;;;4995273;28;20220;-75
2021/12/01 01:26:12;;;;;;;1.13;1.13;;;5.90;75.90;;;;;;4994503;28;20671;-76
2021/12/01 01:28:41;;;;;;;1.50;1.40;;;5.90;76.10;;;;;;4995884;28;20239;-75
2021/12/01 01:31:08;;;;;;;1.90;1.60;;;5.90;76.30;;;;;;5001562;28;20229;-76
2021/12/01 01:33:35;;;;;;;1.25;1.15;;;5.90;75.60;;;;;;5002580;28;20218;-77
2021/12/01 01:36:02;;;;;;;1.58;1.48;;;5.90;75.70;;;;;;4995895;28;20215;-77
2021/12/01 01:38:31;;;;;;;1.40;1.20;;;5.90;75.00;;;;;;4995044;28;20227;-77
2021/12/01 01:40:59;;;;;;;1.90;1.70;;;6.00;75.40;;;;;;4995676;28;20253;-77
2021/12/01 01:43:26;;;;;;;1.60;1.50;;;6.00;75.00;;;;;;4995322;28;20200;-76
2021/12/01 01:45:55;;;;;;;2.35;1.90;;;6.00;74.50;;;;;;4995528;28;20548;-77
2021/12/01 01:48:29;;;;;;;1.30;1.20;;;6.00;74.90;;;;;;4995299;28;20703;-76
2021/12/01 01:50:56;;;;;;;4.38;1.95;;;6.00;74.70;;;;;;5002576;28;20242;-79
2021/12/01 01:53:24;;;;;;;1.80;1.70;;;6.00;74.90;;;;;;5002007;28;20219;-77
2021/12/01 01:55:53;;;;;;;1.35;1.25;;;5.90;75.00;;;;;;4995255;28;20668;-75
2021/12/01 01:58:22;;;;;;;1.40;1.10;;;6.00;74.80;;;;;;4995084;28;20251;-75
2021/12/01 02:00:53;;;;;;;1.13;1.02;;;6.00;75.00;;;;;;4994413;28;20232;-75
2021/12/01 02:03:23;;;;;;;1.92;1.60;;;6.00;75.00;;;;;;4994194;28;20223;-77
2021/12/01 02:05:52;;;;;;;1.95;1.30;;;6.00;75.60;;;;;;4994300;28;20225;-76
2021/12/01 02:08:26;;;;;;;3.42;1.48;;;6.00;75.40;;;;;;4993668;28;20232;-76
2021/12/01 02:10:53;;;;;;;1.50;1.40;;;6.00;75.00;;;;;;4992722;28;20300;-76
2021/12/01 02:13:21;;;;;;;1.30;1.13;;;6.00;75.00;;;;;;4994064;28;20585;-75
2021/12/01 02:15:50;;;;;;;1.35;1.23;;;6.00;74.60;;;;;;4994818;28;20220;-79
2021/12/01 02:18:17;;;;;;;1.80;1.50;;;6.10;74.40;;;;;;5002282;28;20235;-79
2021/12/01 02:20:58;;;;;;;1.65;1.40;;;6.10;73.90;;;;;;4995769;28;20688;-77
2021/12/01 02:23:26;;;;;;;1.45;1.35;;;6.10;74.10;;;;;;4993777;28;20208;-79
2021/12/01 02:25:53;;;;;;;1.40;1.30;;;6.10;73.90;;;;;;4992592;28;20255;-76
2021/12/01 02:28:20;;;;;;;1.70;1.20;;;6.10;73.90;;;;;;4993606;28;20232;-75
2021/12/01 02:30:47;;;;;;;1.85;1.15;;;6.20;74.00;;;;;;4994062;28;20215;-76
2021/12/01 02:33:14;;;;;;;1.85;1.40;;;6.20;74.00;;;;;;4993762;28;20271;-77
2021/12/01 02:35:41;;;;;;;1.30;1.20;;;6.20;74.00;;;;;;4998233;28;20215;-78
2021/12/01 02:38:09;;;;;;;2.92;1.75;;;6.20;74.00;;;;;;5000571;28;20251;-77
2021/12/01 02:40:36;;;;;;;0.98;0.93;;;6.20;74.00;;;;;;4999811;28;20216;-77
2021/12/01 02:43:03;;;;;;;4.32;1.30;;;6.20;74.00;;;;;;4998182;28;20580;-79
2021/12/01 02:45:30;;;;;;;2.05;1.30;;;6.20;74.00;;;;;;4998537;28;20205;-79
2021/12/01 02:47:57;;;;;;;1.90;1.80;;;6.20;74.00;;;;;;4996521;28;20632;-77
2021/12/01 02:50:24;;;;;;;1.50;1.30;;;6.20;74.00;;;;;;5006612;28;20537;-78
2021/12/01 02:52:53;;;;;;;1.67;1.58;;;6.20;74.00;;;;;;5008153;28;20212;-77
2021/12/01 02:55:22;;;;;;;1.98;1.50;;;6.30;74.10;;;;;;4995767;28;20222;-78
2021/12/01 02:57:51;;;;;;;1.45;1.35;;;6.30;73.90;;;;;;5000986;28;20236;-77
2021/12/01 03:00:21;;;;;;;1.65;1.35;;;6.30;73.50;;;;;;5010375;28;20205;-77
2021/12/01 03:02:49;;;;;;;1.20;1.00;;;6.30;73.50;;;;;;5011690;28;20218;-77
2021/12/01 03:05:17;;;;;;;1.40;1.30;;;6.30;74.30;;;;;;5003264;28;20240;-76
2021/12/01 03:07:45;;;;;;;1.20;1.10;;;6.30;74.10;;;;;;4994052;28;20243;-76
2021/12/01 03:10:13;;;;;;;1.50;1.05;;;6.30;73.60;;;;;;5003891;28;20235;-75
2021/12/01 03:12:42;;;;;;;1.90;1.23;;;6.30;74.10;;;;;;5015473;28;20205;-76
2021/12/01 03:15:16;;;;;;;1.58;1.23;;;6.30;73.50;;;;;;5015842;28;20192;-75
2021/12/01 03:17:43;;;;;;;1.40;1.30;;;6.30;74.10;;;;;;5007202;28;20242;-76
2021/12/01 03:20:14;;;;;;;1.30;1.20;;;6.30;74.10;;;;;;5011259;28;20200;-75
2021/12/01 03:22:41;;;;;;;1.08;0.98;;;6.30;74.10;;;;;;5016898;28;20207;-77
2021/12/01 03:25:12;;;;;;;2.15;1.10;;;6.30;74.10;;;;;;5020363;28;20205;-76
2021/12/01 03:27:41;;;;;;;2.35;1.60;;;6.30;74.10;;;;;;5018570;28;20234;-77
2021/12/01 03:30:10;;;;;;;3.45;1.50;;;6.30;74.10;;;;;;5017546;28;20232;-76
2021/12/01 03:32:38;;;;;;;1.65;1.27;;;6.30;74.10;;;;;;5016582;28;20276;-77
2021/12/01 03:35:07;;;;;;;1.33;1.17;;;6.40;74.20;;;;;;5015652;28;20208;-77
2021/12/01 03:37:34;;;;;;;1.50;1.40;;;6.40;74.20;;;;;;5006130;28;20324;-78
2021/12/01 03:40:01;;;;;;;2.25;0.98;;;6.40;74.30;;;;;;5004513;28;20205;-76
2021/12/01 03:42:28;;;;;;;1.20;1.10;;;6.40;74.20;;;;;;5000579;28;20303;-76
2021/12/01 03:44:56;;;;;;;1.58;1.45;;;6.40;74.20;;;;;;4997713;28;20577;-77
2021/12/01 03:47:23;;;;;;;2.00;1.42;;;6.40;74.20;;;;;;4996507;28;20318;-77
2021/12/01 03:49:50;;;;;;;1.15;1.05;;;6.50;74.30;;;;;;4997008;28;20224;-76
2021/12/01 03:52:17;;;;;;;1.50;1.40;;;6.40;74.20;;;;;;4996199;28;20208;-76
2021/12/01 03:54:44;;;;;;;1.40;1.30;;;6.40;74.20;;;;;;4996777;28;20274;-76
2021/12/01 03:57:11;;;;;;;1.13;1.13;;;6.50;74.30;;;;;;4996741;28;20236;-75
2021/12/01 03:59:38;;;;;;;2.55;1.30;;;6.50;74.30;;;;;;4996335;28;20569;-77
2021/12/01 04:02:06;;;;;;;1.85;1.30;;;6.50;74.30;;;;;;4996586;28;20215;-76
2021/12/01 04:04:33;;;;;;;1.10;1.10;;;6.60;74.40;;;;;;4996379;28;20687;-76
2021/12/01 04:07:01;;;;;;;1.88;1.20;;;6.60;74.40;;;;;;4996558;28;20319;-76
2021/12/01 04:09:28;;;;;;;1.10;1.00;;;6.60;74.40;;;;;;4996338;28;20327;-75
2021/12/01 04:11:55;;;;;;;0.90;0.90;;;6.70;73.50;;;;;;4996058;28;20633;-76
2021/12/01 04:14:23;;;;;;;1.10;1.00;;;6.70;73.40;;;;;;4995962;28;20852;-75
2021/12/01 04:16:50;;;;;;;1.20;1.10;;;6.70;73.30;;;;;;4996538;28;20235;-77
2021/12/01 04:19:18;;;;;;;2.72;0.93;;;6.80;72.80;;;;;;4997208;28;20209;-76
2021/12/01 04:21:45;;;;;;;1.35;0.80;;;6.80;73.10;;;;;;4996919;28;20208;-76
2021/12/01 04:24:13;;;;;;;2.47;0.93;;;6.80;73.10;;;;;;4998725;28;20303;-76
2021/12/01 04:26:39;;;;;;;0.85;0.68;;;6.80;72.70;;;;;;4996749;28;20598;-76
2021/12/01 04:29:07;;;;;;;0.65;0.65;;;6.80;72.40;;;;;;4996251;28;20601;-75
2021/12/01 04:31:36;;;;;;;1.38;1.00;;;6.90;71.90;;;;;;4996332;28;20213;-77
2021/12/01 04:34:04;;;;;;;1.33;1.00;;;6.90;71.50;;;;;;4995456;28;20232;-77
2021/12/01 04:36:36;;;;;;;1.20;0.70;;;6.90;71.40;;;;;;4996447;28;20228;-77
2021/12/01 04:39:06;;;;;;;0.73;0.70;;;7.00;70.90;;;;;;4999609;28;20239;-77
2021/12/01 04:41:38;;;;;;;1.00;0.80;;;7.00;70.60;;;;;;5006276;28;20220;-77
2021/12/01 04:44:09;;;;;;;1.05;0.73;;;7.00;70.40;;;;;;5001699;28;20231;-77
2021/12/01 04:46:42;;;;;;;1.40;0.60;;;7.00;70.20;;;;;;4999333;28;20229;-77
2021/12/01 04:49:09;;;;;;;3.25;0.80;;;7.10;69.90;;;;;;5001137;28;20232;-77
2021/12/01 04:51:39;;;;;;;1.17;0.60;;;7.10;70.00;;;;;;4998479;28;20209;-76
2021/12/01 04:54:06;;;;;;;0.75;0.75;;;7.10;69.50;;;;;;5000411;28;20219;-78
2021/12/01 04:56:33;;;;;;;0.90;0.82;;;7.10;69.40;;;;;;4999976;28;20228;-78
2021/12/01 04:59:00;;;;;;;0.60;0.60;;;7.10;69.60;;;;;;5002680;28;20215;-78
2021/12/01 05:01:26;;;;;;;1.90;0.95;;;7.10;69.10;;;;;;5005444;28;20220;-77
2021/12/01 05:03:53;;;;;;;0.98;0.75;;;7.10;68.90;;;;;;5016002;28;20212;-77
2021/12/01 05:06:22;;;;;;;1.38;0.80;;;7.20;69.00;;;;;;5012190;28;20304;-79
2021/12/01 05:08:50;;;;;;;0.60;0.60;;;7.10;69.00;;;;;;5003654;28;20220;-77
2021/12/01 05:11:17;;;;;;;2.03;0.88;;;7.20;68.40;;;;;;5000817;28;20684;-77
2021/12/01 05:13:44;;;;;;;0.60;0.50;;;7.20;68.50;;;;;;5000724;28;20728;-77
2021/12/01 05:16:11;;;;;;;0.75;0.70;;;7.20;68.50;;;;;;4998454;28;20204;-78
2021/12/01 05:18:38;;;;;;;3.28;0.70;;;7.20;68.10;;;;;;5003492;28;20216;-77
2021/12/01 05:21:05;;;;;;;0.95;0.82;;;7.20;68.40;;;;;;5008341;28;20272;-77
2021/12/01 05:23:32;;;;;;;0.95;0.68;;;7.30;68.10;;;;;;5000524;28;20212;-76
2021/12/01 05:26:00;;;;;;;0.68;0.68;;;7.20;68.20;;;;;;4997651;28;20264;-76
2021/12/01 05:28:27;;;;;;;1.00;0.60;;;7.20;68.10;;;;;;4996191;28;20267;-79
2021/12/01 05:30:55;;;;;;;0.50;0.50;;;7.20;68.40;;;;;;4997697;28;20227;-76
2021/12/01 05:33:22;;;;;;;0.73;0.73;;;7.20;67.90;;;;;;4996058;28;20216;-77
2021/12/01 05:35:49;;;;;;;0.65;0.65;;;7.20;68.00;;;;;;4995700;28;20223;-76
2021/12/01 05:38:17;;;;;;;2.63;1.20;;;7.30;68.20;;;;;;4995704;28;20229;-76
2021/12/01 05:40:46;;;;;;;0.75;0.75;;;7.30;67.50;;;;;;5002681;28;20216;-79
2021/12/01 05:43:14;;;;;;;0.77;0.70;;;7.30;67.20;;;;;;5002163;28;20217;-76
2021/12/01 05:45:41;;;;;;;0.82;0.70;;;7.30;67.30;;;;;;4993626;28;20205;-77
2021/12/01 05:48:08;;;;;;;1.65;0.50;;;7.40;67.00;;;;;;4980553;28;20235;-77
2021/12/01 05:50:35;;;;;;;0.60;0.60;;;7.40;67.10;;;;;;4987180;28;20216;-77
2021/12/01 05:53:02;;;;;;;0.47;0.47;;;7.40;67.10;;;;;;5007946;28;20213;-78
2021/12/01 05:55:29;;;;;;;0.50;0.50;;;7.40;66.80;;;;;;4997042;28;20212;-76
2021/12/01 05:57:56;;;;;;;0.90;0.70;;;7.40;66.70;;;;;;4979390;28;20574;-76
2021/12/01 06:00:24;;;;;;;0.60;0.60;;;7.50;66.40;;;;;;4996395;28;20575;-77
2021/12/01 06:02:52;;;;;;;0.52;0.52;;;7.50;66.40;;;;;;4975870;28;20212;-77
2021/12/01 06:05:18;;;;;;;2.20;0.70;;;7.50;66.40;;;;;;4975156;28;20300;-77
2021/12/01 06:07:45;;;;;;;0.80;0.60;;;7.50;66.40;;;;;;4975989;28;20233;-76
2021/12/01 06:10:13;;;;;;;0.63;0.63;;;7.50;66.50;;;;;;4975120;28;20657;-76
2021/12/01 06:12:40;;;;;;;0.80;0.70;;;7.50;66.40;;;;;;4975587;28;20263;-77
2021/12/01 06:15:09;;;;;;;0.68;0.68;;;7.50;66.80;;;;;;4975256;28;20264;-78
2021/12/01 06:17:38;;;;;;;0.70;0.70;;;7.50;66.90;;;;;;4991666;28;20285;-77
2021/12/01 06:20:06;;;;;;;0.60;0.60;;;7.50;67.00;;;;;;4994936;28;20232;-78
2021/12/01 06:22:33;;;;;;;0.55;0.55;;;7.50;67.20;;;;;;4994293;28;20208;-79
2021/12/01 06:25:00;;;;;;;1.15;0.77;;;7.50;66.50;;;;;;4996460;28;20224;-78
2021/12/01 06:27:29;;;;;;;0.80;0.80;;;7.50;66.40;;;;;;4993076;28;20227;-78
2021/12/01 06:29:56;;;;;;;0.50;0.50;;;7.60;66.50;;;;;;4996012;28;20513;-78
2021/12/01 06:32:23;;;;;;;1.67;0.80;;;7.60;66.50;;;;;;4985250;28;20292;-76
2021/12/01 06:34:51;;;;;;;1.83;0.57;;;7.60;66.50;;;;;;4979686;28;20207;-78
2021/12/01 06:37:19;;;;;;;0.68;0.68;;;7.70;66.60;;;;;;4992077;28;20253;-78
2021/12/01 06:39:47;;;;;;;0.50;0.50;;;7.70;66.60;;;;;;4975086;28;20673;-77
2021/12/01 06:42:13;;;;;;;0.82;0.82;;;7.70;66.10;;;;;;4976945;28;20213;-78
2021/12/01 06:44:41;;;;;;;1.70;0.93;;;7.70;66.60;;;;;;4979486;28;20208;-78
2021/12/01 06:47:08;;;;;;;0.40;0.40;;;7.80;66.10;;;;;;4978088;28;20233;-79
2021/12/01 06:49:35;;;;;;;0.57;0.57;;;7.80;65.70;;;;;;4976408;28;20225;-77
2021/12/01 06:52:04;;;;;;;0.70;0.70;;;7.80;65.50;;;;;;4979816;28;20212;-77
2021/12/01 06:54:30;;;;;;;0.70;0.60;;;7.90;65.50;;;;;;4975639;28;20224;-78
2021/12/01 06:56:57;;;;;;;1.42;0.63;;;7.90;65.70;;;;;;4975418;28;20252;-78
2021/12/01 06:59:24;;;;;;;0.50;0.50;;;7.90;65.60;;;;;;4975663;28;20538;-78
2021/12/01 07:01:51;;;;;;;1.05;0.65;;;7.90;65.80;;;;;;4975848;28;20213;-78
2021/12/01 07:04:17;;;;;;;0.65;0.65;;;7.90;65.90;;;;;;4976157;28;20212;-78
2021/12/01 07:06:45;;;;;;;1.05;0.60;;;7.90;66.60;;;;;;4999760;23;20261;-78
2021/12/01 07:09:18;;;;;;;2.25;0.60;;;7.90;66.80;;;;;;4967884;28;20281;-77
2021/12/01 07:11:45;;;;;;;1.88;0.60;;;7.90;66.80;;;;;;4961750;29;20222;-78
2021/12/01 07:14:12;;;;;;;0.50;0.40;;;7.90;66.80;;;;;;4960143;29;20666;-78
2021/12/01 07:16:39;;;;;;;0.60;0.50;;;7.90;66.80;;;;;;4960234;28;20210;-79
2021/12/01 07:19:06;;;;;;;0.68;0.50;;;7.90;66.80;;;;;;4959702;28;20277;-78
2021/12/01 07:21:35;;;;;;;0.40;0.40;;;7.90;66.80;;;;;;4967612;29;20206;-78
2021/12/01 07:24:02;;;;;;;1.05;0.60;;;7.90;66.80;;;;;;4970230;29;20220;-78
2021/12/01 07:26:30;;;;;;;0.50;0.50;;;7.90;66.80;;;;;;4970215;29;20218;-76
2021/12/01 07:29:01;;;;;;;1.42;0.77;;;7.90;65.60;;;;;;4958116;28;20268;-77
2021/12/01 07:31:27;;;;;;;0.40;0.40;;;8.10;64.50;;;;;;4958145;29;20241;-77
2021/12/01 07:33:54;;;;;;;1.58;0.40;;;8.20;64.00;;;;;;4961658;29;20316;-77
2021/12/01 07:36:21;;;;;;;0.80;0.45;;;8.20;63.20;;;;;;4965426;29;20209;-78
2021/12/01 07:38:50;;;;;;;0.70;0.50;;;8.20;62.60;;;;;;4956966;28;20234;-76
2021/12/01 07:41:17;;;;;;;0.40;0.40;;;8.30;62.70;;;;;;4956873;29;20254;-78
2021/12/01 07:43:46;;;;;;;1.25;0.47;;;8.30;62.70;;;;;;4957844;29;20219;-78
2021/12/01 07:46:13;;;;;;;1.05;0.55;;;8.40;62.80;;;;;;4957060;29;20214;-78
2021/12/01 07:48:40;;;;;;;2.55;0.68;;;8.40;62.60;;;;;;4958201;28;20258;-78
2021/12/01 07:51:06;;;;;;;2.50;0.47;;;8.40;62.80;;;;;;4957077;29;20698;-78
2021/12/01 07:53:33;;;;;;;1.25;0.57;;;8.40;62.80;;;;;;4957709;29;20206;-76
2021/12/01 07:56:02;;;;;;;0.32;0.30;;;8.40;62.80;;;;;;4957903;28;20214;-80
2021/12/01 07:58:29;;;;;;;1.10;0.50;;;8.40;62.60;;;;;;4957041;28;20261;-78
2021/12/01 08:00:57;;;;;;;0.93;0.47;;;8.40;61.80;;;;;;4958078;29;20208;-77
2021/12/01 08:03:24;;;;;;;0.80;0.70;;;8.50;61.70;;;;;;4959790;28;20252;-80
2021/12/01 08:05:51;;;;;;;1.65;0.50;;;8.50;61.90;;;;;;4961108;29;20297;-78
2021/12/01 08:08:18;;;;;;;0.30;0.30;;;8.50;62.20;;;;;;4966797;28;20313;-77
2021/12/01 08:10:46;;;;;;;1.08;0.60;;;8.60;62.00;;;;;;4975202;29;20277;-78
2021/12/01 08:13:13;;;;;;;0.88;0.88;;;8.60;62.30;;;;;;4975946;29;20224;-79
2021/12/01 08:15:40;;;;;;;0.73;0.50;;;8.70;62.70;;;;;;4978705;29;20217;-78
2021/12/01 08:18:08;;;;;;;0.93;0.50;;;8.70;62.40;;;;;;4979552;28;20249;-77
2021/12/01 08:20:37;;;;;;;1.20;0.50;;;8.70;62.60;;;;;;4979629;29;20210;-78
2021/12/01 08:23:04;;;;;;;1.25;0.45;;;8.70;62.80;;;;;;4978872;28;20210;-79
2021/12/01 08:25:31;;;;;;;0.50;0.50;;;8.70;63.00;;;;;;4969592;29;20210;-77
2021/12/01 08:28:00;;;;;;;0.65;0.55;;;8.70;63.00;;;;;;4961788;28;20242;-77
2021/12/01 08:30:26;;;;;;;0.80;0.50;;;8.80;63.10;;;;;;4960978;29;20638;-77
2021/12/01 08:32:54;;;;;;;0.43;0.40;;;8.70;63.00;;;;;;4962581;28;20213;-78
2021/12/01 08:35:22;;;;;;;0.47;0.47;;;8.70;63.20;;;;;;4968787;29;20300;-80
2021/12/01 08:37:49;;;;;;;1.00;0.40;;;8.70;63.70;;;;;;4968248;28;20236;-79
2021/12/01 08:40:18;;;;;;;0.93;0.52;;;8.70;63.70;;;;;;4971258;29;20275;-78
2021/12/01 08:42:46;;;;;;;1.45;0.50;;;8.70;63.60;;;;;;4961914;29;20214;-79
2021/12/01 08:45:13;;;;;;;9.48;0.95;;;8.80;63.20;;;;;;4962781;29;20217;-78
2021/12/01 08:47:40;;;;;;;1.15;0.40;;;8.80;63.10;;;;;;4962155;28;20238;-77
2021/12/01 08:50:09;;;;;;;0.63;0.52;;;8.80;63.10;;;;;;4964002;29;20236;-78
2021/12/01 08:52:39;;;;;;;0.65;0.50;;;8.90;62.90;;;;;;4974396;28;20209;-77
2021/12/01 08:55:09;;;;;;;0.90;0.52;;;8.90;62.80;;;;;;4978779;29;20233;-78
2021/12/01 08:57:38;;;;;;;0.88;0.40;;;8.90;62.40;;;;;;4979045;28;20252;-78
2021/12/01 09:00:08;;;;;;;2.25;0.50;;;9.00;63.10;;;;;;4973217;29;20233;-78
2021/12/01 09:02:37;;;;;;;1.58;0.90;;;9.00;62.40;;;;;;4974856;28;20245;-78
2021/12/01 09:05:04;;;;;;;0.50;0.50;;;9.00;62.50;;;;;;4973619;29;20278;-79
2021/12/01 09:07:32;;;;;;;1.15;0.50;;;9.00;61.70;;;;;;4969429;28;20329;-80
2021/12/01 09:10:00;;;;;;;1.83;0.70;;;9.10;61.60;;;;;;4969677;29;20288;-78
2021/12/01 09:12:27;;;;;;;0.45;0.45;;;9.10;61.40;;;;;;4970017;28;20626;-78
2021/12/01 09:14:55;;;;;;;0.70;0.60;;;9.10;61.40;;;;;;4974872;29;20218;-79
2021/12/01 09:17:22;;;;;;;0.40;0.40;;;9.10;61.10;;;;;;4976626;28;20221;-79
2021/12/01 09:19:50;;;;;;;1.52;0.47;;;9.20;60.40;;;;;;4975802;28;20284;-79
2021/12/01 09:22:18;;;;;;;0.50;0.40;;;9.20;60.00;;;;;;4975969;29;20210;-78
2021/12/01 09:24:46;;;;;;;6.18;0.55;;;9.30;59.80;;;;;;4976642;29;20281;-79
2021/12/01 09:27:14;;;;;;;0.70;0.30;;;9.30;59.60;;;;;;4976524;28;20234;-79
2021/12/01 09:29:42;;;;;;;0.52;0.50;;;9.40;59.20;;;;;;4973944;29;20210;-80
2021/12/01 09:32:10;;;;;;;0.93;0.40;;;9.40;59.20;;;;;;4973615;29;20249;-79
2021/12/01 09:34:39;;;;;;;0.82;0.50;;;9.50;59.20;;;;;;4971579;28;20210;-81
2021/12/01 09:37:06;;;;;;;0.60;0.35;;;9.50;59.20;;;;;;4965478;28;20662;-79
2021/12/01 09:39:33;;;;;;;0.60;0.47;;;9.60;59.30;;;;;;4960340;29;20218;-81
2021/12/01 09:42:01;;;;;;;0.60;0.40;;;9.60;59.30;;;;;;4967647;29;20206;-80
2021/12/01 09:44:31;;;;;;;0.50;0.30;;;9.70;58.70;;;;;;4970163;29;20285;-79
2021/12/01 09:46:58;;;;;;;0.50;0.50;;;9.70;58.40;;;;;;4959880;28;20573;-77
2021/12/01 09:49:25;;;;;;;0.40;0.30;;;9.70;58.50;;;;;;4959050;29;20739;-77
2021/12/01 09:51:53;;;;;;;0.50;0.40;;;9.70;58.40;;;;;;4961223;29;20229;-78
2021/12/01 09:54:20;;;;;;;0.40;0.35;;;9.70;57.80;;;;;;4959282;29;20209;-77
2021/12/01 09:56:46;;;;;;;0.60;0.50;;;9.80;57.80;;;;;;4959815;28;20217;-79
2021/12/01 09:59:13;;;;;;;0.88;0.30;;;9.80;57.50;;;;;;4960562;29;20216;-77
2021/12/01 10:01:42;;;;;;;2.20;0.50;;;9.80;58.10;;;;;;4959524;29;20228;-77
2021/12/01 10:04:10;;;;;;;0.40;0.40;;;9.80;59.50;;;;;;4960214;29;20205;-80
2021/12/01 10:06:39;;;;;;;0.45;0.45;;;9.70;59.40;;;;;;4960428;28;20682;-80
2021/12/01 10:09:09;;;;;;;0.43;0.43;;;9.70;60.60;;;;;;4963225;28;20210;-77
2021/12/01 10:11:38;;;;;;;1.58;0.40;;;9.70;60.70;;;;;;4960651;29;20606;-78
2021/12/01 10:14:08;;;;;;;0.52;0.50;;;9.60;61.70;;;;;;4960594;29;20671;-80
2021/12/01 10:16:38;;;;;;;0.95;0.52;;;9.70;63.30;;;;;;4960642;28;20709;-78
2021/12/01 10:19:11;;;;;;;1.27;0.70;;;9.60;63.80;;;;;;4960214;29;20205;-79
2021/12/01 10:21:40;;;;;;;1.30;0.57;;;9.60;66.20;;;;;;4959966;29;20240;-79
2021/12/01 10:24:10;;;;;;;1.20;0.50;;;9.60;66.80;;;;;;4960685;29;20218;-80
2021/12/01 10:26:41;;;;;;;0.60;0.60;;;9.50;68.20;;;;;;4960249;28;20245;-77
2021/12/01 10:29:10;;;;;;;2.05;0.70;;;9.40;68.00;;;;;;4959207;29;20230;-79
2021/12/01 10:31:41;;;;;;;0.85;0.50;;;9.30;68.80;;;;;;4958743;28;20240;-79
2021/12/01 10:34:26;;;;;;;1.30;1.25;;;9.30;69.80;;;;;;4958992;29;20194;-79
2021/12/01 10:37:15;;;;;;;0.60;0.60;;;9.30;69.70;;;;;;4959671;28;20324;-78
2021/12/01 10:39:44;;;;;;;0.40;0.40;;;9.20;70.20;;;;;;4958673;29;20210;-78
2021/12/01 10:42:14;;;;;;;0.60;0.60;;;9.30;71.00;;;;;;4960253;29;20693;-76
2021/12/01 10:44:55;;;;;;;0.90;0.90;;;9.30;70.90;;;;;;4959097;29;20233;-76
2021/12/01 10:47:22;;;;;;;1.00;0.60;;;9.30;71.00;;;;;;4959374;28;20733;-78
2021/12/01 10:49:51;;;;;;;0.50;0.50;;;9.40;70.90;;;;;;4960720;29;20300;-77
2021/12/01 10:52:31;;;;;;;0.45;0.38;;;9.50;70.80;;;;;;4964535;29;20316;-78
2021/12/01 10:55:10;;;;;;;0.57;0.55;;;9.60;70.10;;;;;;4959424;29;20205;-77
2021/12/01 10:57:41;;;;;;;0.82;0.60;;;9.60;69.80;;;;;;4962242;28;20237;-77
2021/12/01 11:00:26;;;;;;;1.27;0.50;;;9.60;70.50;;;;;;4962852;29;20260;-79
2021/12/01 11:02:54;;;;;;;0.70;0.50;;;9.60;71.10;;;;;;4964496;29;20210;-78
2021/12/01 11:05:43;;;;;;;0.85;0.45;;;9.50;71.90;;;;;;4962831;29;20225;-80
2021/12/01 11:08:15;;;;;;;1.38;0.40;;;9.40;73.10;;;;;;4962481;28;20225;-78
2021/12/01 11:10:44;;;;;;;0.57;0.43;;;9.30;74.00;;;;;;4962503;28;20217;-81
2021/12/01 11:13:11;;;;;;;1.38;0.93;;;9.30;75.10;;;;;;4960461;29;20214;-78
2021/12/01 11:15:41;;;;;;;2.33;0.60;;;9.20;76.30;;;;;;4961090;29;20319;-78
2021/12/01 11:18:11;;;;;;;0.47;0.47;;;9.20;76.80;;;;;;4959018;28;20234;-79
2021/12/01 11:20:46;;;;;;;1.55;0.80;;;9.20;79.50;;;;;;4964777;29;20202;-77
2021/12/01 11:23:24;;;;;;;1.20;0.57;;;9.20;79.80;;;;;;4963128;29;20229;-79
2021/12/01 11:25:54;;;;;;;1.15;0.70;;;9.10;81.50;;;;;;4960534;29;20233;-81
2021/12/01 11:28:23;;;;;;;0.57;0.55;;;9.00;83.30;;;;;;4959962;28;20233;-80
2021/12/01 11:30:51;;;;;;;0.63;0.60;;;9.00;84.80;;;;;;4959369;29;20213;-77
2021/12/01 11:33:21;;;;;;;0.60;0.60;;;9.00;84.90;;;;;;4958925;29;20580;-79
2021/12/01 11:35:53;;;;;;;1.85;1.10;;;9.10;85.00;;;;;;4958560;29;20209;-77
2021/12/01 11:38:21;;;;;;;1.08;0.70;;;9.10;84.90;;;;;;4957535;28;20257;-78
2021/12/01 11:40:49;;;;;;;0.50;0.50;;;9.20;85.00;;;;;;4959683;29;20663;-80
2021/12/01 11:43:19;;;;;;;0.52;0.52;;;9.20;85.50;;;;;;4962661;28;20576;-82
2021/12/01 11:45:47;;;;;;;0.88;0.70;;;9.20;85.00;;;;;;4963300;29;20302;-78
2021/12/01 11:48:18;;;;;;;2.40;0.82;;;9.30;85.00;;;;;;4963104;28;20664;-79
2021/12/01 11:50:57;;;;;;;0.60;0.52;;;9.30;85.10;;;;;;4968435;29;20198;-78
2021/12/01 11:53:26;;;;;;;2.15;0.70;;;9.30;85.00;;;;;;4968240;29;20208;-78
2021/12/01 11:56:00;;;;;;;2.88;1.00;;;9.30;85.70;;;;;;4969453;29;20241;-77
2021/12/01 11:58:45;;;;;;;0.70;0.70;;;9.30;85.00;;;;;;4963671;28;20320;-79
2021/12/01 12:01:35;;;;;;;0.90;0.80;;;9.40;85.10;;;;;;4964057;29;20210;-80
2021/12/01 12:04:32;;;;;;;1.88;1.20;;;9.50;85.20;;;;;;4966563;28;20273;-79
2021/12/01 12:07:06;;;;;;;0.82;0.60;;;9.40;84.40;;;;;;4976250;28;20237;-79
2021/12/01 12:09:34;;;;;;;0.60;0.57;;;9.50;82.50;;;;;;4979764;28;20193;-80
2021/12/01 12:12:20;;;;;;;0.80;0.55;;;9.50;83.40;;;;;;4980031;28;20214;-80
2021/12/01 12:14:55;;;;;;;1.05;0.40;;;9.50;81.80;;;;;;4979102;29;20204;-78
2021/12/01 12:17:39;;;;;;;0.60;0.60;;;9.60;81.70;;;;;;4967424;28;20732;-78
2021/12/01 12:20:20;;;;;;;0.55;0.55;;;9.60;81.20;;;;;;4965441;28;20238;-78
2021/12/01 12:23:03;;;;;;;2.60;0.70;;;9.60;81.30;;;;;;4970644;29;20276;-78
2021/12/01 12:25:55;;;;;;;0.60;0.55;;;9.50;81.60;;;;;;4970828;29;20233;-80
2021/12/01 12:28:34;;;;;;;1.10;0.70;;;9.50;82.50;;;;;;4976130;28;20230;-79
2021/12/01 12:31:29;;;;;;;1.88;0.60;;;9.50;82.80;;;;;;4974618;28;20229;-78
2021/12/01 12:33:59;;;;;;;0.90;0.50;;;9.50;83.30;;;;;;4971588;28;20269;-79
2021/12/01 12:36:49;;;;;;;1.23;0.70;;;9.50;83.20;;;;;;4973498;29;20216;-78
2021/12/01 12:39:56;;;;;;;1.25;0.52;;;9.40;83.60;;;;;;4966998;29;20210;-77
2021/12/01 12:42:23;;;;;;;0.60;0.60;;;9.40;84.20;;;;;;4971211;28;20218;-78
2021/12/01 12:44:58;;;;;;;1.58;0.50;;;9.40;85.10;;;;;;4970060;28;20219;-78
2021/12/01 12:47:49;;;;;;;0.65;0.40;;;9.40;84.60;;;;;;4976266;28;20228;-79
2021/12/01 12:50:18;;;;;;;1.17;0.80;;;9.30;85.00;;;;;;4972587;28;20210;-79
2021/12/01 12:52:46;;;;;;;1.25;0.80;;;9.30;85.10;;;;;;4965105;29;20230;-79
2021/12/01 12:55:42;;;;;;;0.60;0.52;;;9.30;85.10;;;;;;4970182;28;20209;-79
2021/12/01 12:58:35;;;;;;;1.05;0.60;;;9.30;86.70;;;;;;4975776;28;20234;-79
2021/12/01 13:01:08;;;;;;;0.60;0.60;;;9.40;87.20;;;;;;4975318;29;20221;-78
2021/12/01 13:03:47;;;;;;;0.88;0.50;;;9.40;87.00;;;;;;4977323;29;20170;-79
2021/12/01 13:06:31;;;;;;;0.95;0.50;;;9.40;86.30;;;;;;4977975;28;20186;-80
2021/12/01 13:09:18;;;;;;;2.88;0.70;;;9.40;86.30;;;;;;5039717;23;20296;-78
2021/12/01 13:11:47;;;;;;;1.50;0.60;;;9.40;86.00;;;;;;5041403;28;20227;-78
2021/12/01 13:14:14;;;;;;;1.27;0.70;;;9.30;86.90;;;;;;5043952;28;20247;-79
2021/12/01 13:16:41;;;;;;;0.60;0.60;;;9.30;87.40;;;;;;5041770;28;20222;-78